Time;durP1;ratioP1;P1;durP2;ratioP2;P2;SDS_P1;SDS_P2;PMS_P1;PMS_P2;Temp;Humidity;BMP_temperature;BMP_pressure;BME280_temperature;BME280_humidity;BME280_pressure;Samples;Min_cycle;Max_cycle;Signal;HPM_P1;HPM_P2
2022/08/31 00:06:53;;;;;;;2.40;2.20;;;15.30;1.00;;;;;;6242962;28;20316;-56
2022/08/31 00:09:56;;;;;;;2.63;2.53;;;15.30;1.00;;;;;;6252073;28;20249;-56
2022/08/31 00:13:00;;;;;;;2.77;2.33;;;15.20;1.00;;;;;;6256855;28;20258;-55
2022/08/31 00:16:06;;;;;;;3.50;2.23;;;15.20;1.00;;;;;;6236995;28;20324;-55
2022/08/31 00:19:09;;;;;;;2.40;2.30;;;15.20;1.00;;;;;;6239538;28;20605;-55
2022/08/31 00:22:13;;;;;;;3.73;2.60;;;15.20;1.00;;;;;;6250005;28;20372;-55
2022/08/31 00:25:16;;;;;;;2.30;2.30;;;15.10;1.00;;;;;;6212295;28;20239;-55
2022/08/31 00:28:19;;;;;;;2.13;2.13;;;15.10;1.00;;;;;;6216591;28;20238;-53
2022/08/31 00:31:22;;;;;;;3.00;2.53;;;15.00;1.00;;;;;;6224628;28;20326;-56
2022/08/31 00:34:26;;;;;;;2.20;2.20;;;15.00;1.00;;;;;;6226007;28;20236;-56
2022/08/31 00:37:32;;;;;;;2.13;2.10;;;15.00;1.00;;;;;;6232667;28;20403;-54
2022/08/31 00:40:36;;;;;;;2.50;2.40;;;15.00;1.00;;;;;;6211884;28;20255;-55
2022/08/31 00:43:49;;;;;;;2.33;2.30;;;14.90;1.00;;;;;;6210265;28;20247;-54
2022/08/31 00:46:53;;;;;;;2.27;2.27;;;14.90;1.00;;;;;;6230104;28;20268;-55
2022/08/31 00:49:57;;;;;;;2.23;2.23;;;14.90;1.00;;;;;;6227223;28;20738;-55
2022/08/31 00:53:02;;;;;;;2.67;2.47;;;14.80;1.00;;;;;;6235541;28;20235;-55
2022/08/31 00:56:05;;;;;;;2.77;2.47;;;14.80;1.00;;;;;;6235319;28;20231;-55
2022/08/31 00:59:09;;;;;;;2.20;2.10;;;14.80;1.00;;;;;;6230076;28;20234;-55
2022/08/31 01:02:12;;;;;;;2.50;2.30;;;14.70;1.00;;;;;;6217839;28;20442;-55
2022/08/31 01:05:17;;;;;;;2.63;2.53;;;14.70;1.00;;;;;;6232326;28;20326;-57
2022/08/31 01:08:21;;;;;;;2.50;2.40;;;14.80;1.00;;;;;;6234687;28;20296;-56
2022/08/31 01:11:33;;;;;;;3.33;2.90;;;14.70;1.00;;;;;;6233549;28;20242;-56
2022/08/31 01:14:38;;;;;;;2.47;2.37;;;14.70;1.00;;;;;;6224029;28;20801;-56
2022/08/31 01:17:42;;;;;;;2.33;2.23;;;14.70;1.00;;;;;;6209162;28;20808;-56
2022/08/31 01:20:55;;;;;;;2.60;2.50;;;14.60;1.00;;;;;;6228724;28;20261;-55
2022/08/31 01:24:01;;;;;;;2.50;2.40;;;14.60;1.00;;;;;;6212991;28;20239;-56
2022/08/31 01:27:06;;;;;;;2.47;2.43;;;14.60;1.00;;;;;;6208825;28;20550;-55
2022/08/31 01:30:13;;;;;;;2.40;2.40;;;14.60;1.00;;;;;;6209288;28;20531;-55
2022/08/31 01:33:15;;;;;;;2.53;2.47;;;14.60;1.00;;;;;;6241190;28;20731;-55
2022/08/31 01:36:19;;;;;;;2.60;2.43;;;14.60;1.00;;;;;;6258465;28;20238;-56
2022/08/31 01:39:26;;;;;;;2.63;2.53;;;14.60;1.00;;;;;;6244568;28;20233;-56
2022/08/31 01:42:29;;;;;;;2.30;2.30;;;14.60;1.00;;;;;;6253130;28;20321;-54
2022/08/31 01:45:36;;;;;;;2.67;2.57;;;14.70;1.00;;;;;;6257127;28;20375;-55
2022/08/31 01:48:40;;;;;;;2.73;2.63;;;14.70;1.00;;;;;;6258554;28;20719;-55
2022/08/31 01:51:44;;;;;;;2.90;2.60;;;14.70;1.00;;;;;;6254259;28;20241;-55
2022/08/31 01:54:48;;;;;;;2.20;2.20;;;14.70;1.00;;;;;;6233930;28;20545;-55
2022/08/31 01:57:51;;;;;;;2.47;2.37;;;14.80;1.00;;;;;;6244549;28;20507;-53
2022/08/31 02:00:54;;;;;;;2.47;2.30;;;14.90;1.00;;;;;;6249348;28;20235;-55
2022/08/31 02:03:57;;;;;;;3.50;2.70;;;14.90;1.00;;;;;;6251879;28;20246;-53
2022/08/31 02:07:01;;;;;;;2.73;2.53;;;14.90;1.00;;;;;;6253032;28;20233;-55
2022/08/31 02:10:07;;;;;;;2.60;2.40;;;14.80;1.00;;;;;;6256941;28;20727;-55
2022/08/31 02:13:10;;;;;;;2.70;2.50;;;14.90;1.00;;;;;;6258661;28;20371;-55
2022/08/31 02:16:13;;;;;;;2.73;2.53;;;14.90;1.00;;;;;;6257192;28;20240;-54
2022/08/31 02:19:16;;;;;;;2.67;2.67;;;14.90;1.00;;;;;;6252979;28;20257;-54
2022/08/31 02:22:19;;;;;;;2.90;2.70;;;15.00;1.00;;;;;;6233463;28;20863;-54
2022/08/31 02:25:23;;;;;;;2.50;2.40;;;15.00;1.00;;;;;;6233658;28;20615;-55
2022/08/31 02:28:32;;;;;;;2.40;2.40;;;14.90;1.00;;;;;;6244123;28;20731;-54
2022/08/31 02:31:36;;;;;;;3.53;2.90;;;14.90;1.00;;;;;;6254937;28;20537;-55
2022/08/31 02:34:40;;;;;;;3.57;2.67;;;15.00;1.00;;;;;;6252777;28;20229;-55
2022/08/31 02:37:43;;;;;;;2.70;2.60;;;15.00;1.00;;;;;;6257698;28;20324;-54
2022/08/31 02:40:48;;;;;;;2.30;2.30;;;15.00;1.00;;;;;;6257934;28;20321;-55
2022/08/31 02:43:51;;;;;;;2.60;2.40;;;15.10;1.00;;;;;;6223808;28;20277;-55
2022/08/31 02:46:54;;;;;;;2.80;2.60;;;15.00;1.00;;;;;;6235989;28;20456;-56
2022/08/31 02:49:57;;;;;;;2.53;2.53;;;14.90;1.00;;;;;;6237333;28;20246;-56
2022/08/31 02:53:01;;;;;;;4.33;2.30;;;14.90;1.00;;;;;;6237709;28;20716;-55
2022/08/31 02:56:06;;;;;;;2.70;2.60;;;14.90;1.00;;;;;;6236369;28;20750;-55
2022/08/31 02:59:19;;;;;;;2.87;2.70;;;14.90;1.00;;;;;;6250863;28;20488;-53
2022/08/31 03:02:23;;;;;;;2.33;2.23;;;14.90;1.00;;;;;;6259182;28;20412;-56
2022/08/31 03:05:35;;;;;;;2.70;2.60;;;14.90;1.00;;;;;;6260658;28;20246;-56
2022/08/31 03:08:40;;;;;;;3.07;2.47;;;14.90;1.00;;;;;;6262047;28;20234;-55
2022/08/31 03:11:45;;;;;;;2.87;2.77;;;15.00;1.00;;;;;;6261273;28;20379;-56
2022/08/31 03:14:48;;;;;;;2.77;2.67;;;15.00;1.00;;;;;;6250669;28;20380;-55
2022/08/31 03:17:51;;;;;;;3.57;3.10;;;14.90;1.00;;;;;;6237110;28;20301;-54
2022/08/31 03:20:55;;;;;;;3.00;2.77;;;14.90;1.00;;;;;;6236422;28;20333;-55
2022/08/31 03:24:03;;;;;;;3.07;2.87;;;14.90;1.00;;;;;;6252166;28;20363;-54
2022/08/31 03:27:07;;;;;;;2.57;2.40;;;15.00;1.00;;;;;;6248690;28;20807;-54
2022/08/31 03:30:13;;;;;;;2.87;2.67;;;15.10;1.00;;;;;;6236061;28;20245;-55
2022/08/31 03:33:16;;;;;;;3.77;3.37;;;15.10;1.00;;;;;;6235934;28;20425;-56
2022/08/31 03:36:21;;;;;;;4.23;3.20;;;15.10;1.00;;;;;;6255690;28;20308;-54
2022/08/31 03:39:31;;;;;;;3.33;3.13;;;15.00;1.00;;;;;;6257767;28;20230;-56
2022/08/31 03:42:36;;;;;;;3.13;2.43;;;14.90;1.00;;;;;;6246777;28;20235;-55
2022/08/31 03:45:40;;;;;;;2.90;2.80;;;15.00;1.00;;;;;;6258949;28;20245;-55
2022/08/31 03:48:43;;;;;;;7.40;3.03;;;14.90;1.00;;;;;;6255438;28;20730;-56
2022/08/31 03:51:46;;;;;;;3.20;3.00;;;14.80;1.00;;;;;;6247184;28;20345;-55
2022/08/31 03:54:49;;;;;;;4.03;2.90;;;14.70;1.00;;;;;;6259699;28;20518;-55
2022/08/31 03:57:54;;;;;;;3.43;3.17;;;14.70;1.00;;;;;;6259471;28;20256;-56
2022/08/31 04:00:57;;;;;;;2.90;2.80;;;14.70;1.00;;;;;;6252809;28;20238;-55
2022/08/31 04:04:00;;;;;;;3.07;2.87;;;14.60;1.00;;;;;;6259737;28;20675;-57
2022/08/31 04:07:03;;;;;;;2.80;2.70;;;14.50;1.00;;;;;;6251815;28;20291;-55
2022/08/31 04:10:07;;;;;;;2.70;2.50;;;14.50;1.00;;;;;;6258692;28;20238;-55
2022/08/31 04:13:12;;;;;;;2.80;2.70;;;14.50;1.00;;;;;;6256975;28;20779;-55
2022/08/31 04:16:17;;;;;;;3.30;3.00;;;14.40;1.00;;;;;;6245072;28;20414;-55
2022/08/31 04:19:21;;;;;;;2.80;2.70;;;14.40;1.00;;;;;;6246537;28;20376;-56
2022/08/31 04:22:24;;;;;;;5.57;3.23;;;14.40;1.00;;;;;;6247153;28;20302;-55
2022/08/31 04:25:27;;;;;;;3.17;3.00;;;14.40;1.00;;;;;;6248534;28;20389;-56
2022/08/31 04:28:31;;;;;;;3.10;2.90;;;14.30;1.00;;;;;;6251290;28;20719;-55
2022/08/31 04:31:35;;;;;;;3.27;3.07;;;14.40;1.00;;;;;;6257045;28;20316;-55
2022/08/31 04:34:38;;;;;;;3.93;3.10;;;14.30;1.00;;;;;;6237306;28;20833;-52
2022/08/31 04:37:42;;;;;;;3.10;3.00;;;14.30;1.00;;;;;;6253382;28;20317;-55
2022/08/31 04:40:48;;;;;;;3.43;3.33;;;14.30;1.00;;;;;;6250918;28;20367;-55
2022/08/31 04:43:57;;;;;;;4.27;3.13;;;14.30;1.00;;;;;;6258706;28;20421;-59
2022/08/31 04:47:00;;;;;;;3.20;2.90;;;14.30;1.00;;;;;;6259284;28;20253;-59
2022/08/31 04:50:06;;;;;;;3.43;3.10;;;14.30;1.00;;;;;;6253923;28;20244;-56
2022/08/31 04:53:09;;;;;;;3.10;2.90;;;14.30;1.00;;;;;;6257440;28;20233;-55
2022/08/31 04:56:14;;;;;;;6.67;3.07;;;14.30;1.00;;;;;;6250184;28;20234;-54
2022/08/31 04:59:20;;;;;;;3.07;2.87;;;14.30;1.00;;;;;;6252364;28;20241;-56
2022/08/31 05:02:24;;;;;;;3.33;3.03;;;14.40;1.00;;;;;;6250674;28;20810;-55
2022/08/31 05:05:31;;;;;;;4.00;2.83;;;14.30;1.00;;;;;;6254358;28;20245;-55
2022/08/31 05:08:34;;;;;;;3.30;3.10;;;14.40;1.00;;;;;;6252565;28;20233;-54
2022/08/31 05:11:37;;;;;;;3.90;3.60;;;14.40;1.00;;;;;;6252527;28;20316;-54
2022/08/31 05:14:42;;;;;;;7.10;3.30;;;14.40;1.00;;;;;;6251282;28;20324;-59
2022/08/31 05:17:44;;;;;;;3.83;3.53;;;14.50;1.00;;;;;;6249772;28;20267;-54
2022/08/31 05:20:48;;;;;;;4.20;3.10;;;14.50;1.00;;;;;;6257564;28;20324;-55
2022/08/31 05:23:51;;;;;;;3.33;3.10;;;14.50;1.00;;;;;;6250625;28;20320;-56
2022/08/31 05:26:56;;;;;;;4.43;3.23;;;14.50;1.00;;;;;;6249737;28;20242;-55
2022/08/31 05:30:00;;;;;;;3.60;3.03;;;14.50;1.00;;;;;;6257474;28;20257;-56
2022/08/31 05:33:03;;;;;;;3.37;3.00;;;14.60;1.00;;;;;;6252457;28;20494;-55
2022/08/31 05:36:07;;;;;;;3.20;2.90;;;14.60;1.00;;;;;;6240827;28;20376;-55
2022/08/31 05:39:13;;;;;;;3.90;3.27;;;14.70;1.00;;;;;;6247138;28;20296;-56
2022/08/31 05:42:16;;;;;;;3.10;2.90;;;14.70;1.00;;;;;;6253168;28;20249;-55
2022/08/31 05:45:20;;;;;;;3.43;3.20;;;14.80;1.00;;;;;;6256092;28;20242;-55
2022/08/31 05:48:23;;;;;;;4.27;3.00;;;14.80;1.00;;;;;;6256766;28;20641;-55
2022/08/31 05:51:33;;;;;;;3.10;2.90;;;14.80;1.00;;;;;;6251298;28;20231;-54
2022/08/31 05:54:40;;;;;;;3.30;3.07;;;14.90;1.00;;;;;;6241118;28;20234;-55
2022/08/31 05:57:43;;;;;;;3.27;2.90;;;15.00;1.00;;;;;;6252562;28;20317;-55
2022/08/31 06:00:47;;;;;;;2.63;2.50;;;15.00;1.00;;;;;;6257657;28;20250;-54
2022/08/31 06:03:52;;;;;;;6.17;2.60;;;15.10;1.00;;;;;;6257391;28;20222;-56
2022/08/31 06:06:57;;;;;;;4.17;3.00;;;15.20;1.00;;;;;;6250722;28;20725;-55
2022/08/31 06:10:00;;;;;;;2.80;2.60;;;15.20;1.00;;;;;;6254786;28;20317;-54
2022/08/31 06:13:04;;;;;;;3.07;2.80;;;15.40;1.00;;;;;;6251734;28;20222;-57
2022/08/31 06:16:09;;;;;;;2.47;2.37;;;15.60;1.00;;;;;;6256440;28;20304;-55
2022/08/31 06:19:13;;;;;;;2.67;2.50;;;15.90;1.00;;;;;;6252166;28;20605;-55
2022/08/31 06:22:18;;;;;;;2.70;2.40;;;16.20;1.00;;;;;;6254343;28;20308;-55
2022/08/31 06:25:23;;;;;;;2.67;2.43;;;16.40;1.00;;;;;;6250840;28;20874;-57
2022/08/31 06:28:31;;;;;;;3.57;2.40;;;16.70;1.00;;;;;;6248439;28;20265;-55
2022/08/31 06:31:37;;;;;;;2.60;2.47;;;17.00;1.00;;;;;;6255836;28;20344;-55
2022/08/31 06:34:43;;;;;;;3.17;2.57;;;17.40;1.00;;;;;;6247273;28;20423;-56
2022/08/31 06:37:46;;;;;;;2.37;2.23;;;17.60;1.00;;;;;;6246804;28;20312;-57
2022/08/31 06:40:49;;;;;;;5.03;2.30;;;17.70;1.00;;;;;;6255302;28;20238;-55
2022/08/31 06:43:52;;;;;;;1.97;1.87;;;17.80;1.00;;;;;;6248256;28;20639;-56
2022/08/31 06:46:57;;;;;;;3.67;2.23;;;17.80;1.00;;;;;;6248157;28;20364;-56
2022/08/31 06:49:59;;;;;;;2.43;2.23;;;17.80;1.00;;;;;;6256960;28;20353;-56
2022/08/31 06:53:02;;;;;;;2.43;2.23;;;17.80;1.00;;;;;;6252551;28;20326;-56
2022/08/31 06:56:06;;;;;;;2.50;1.97;;;17.80;1.00;;;;;;6253721;28;20323;-54
2022/08/31 06:59:22;;;;;;;3.70;2.10;;;17.70;1.00;;;;;;6252178;28;20388;-55
2022/08/31 07:02:32;;;;;;;3.70;1.97;;;17.70;1.00;;;;;;6249769;28;20238;-55
2022/08/31 07:05:37;;;;;;;2.23;2.00;;;17.80;1.00;;;;;;6251792;28;20360;-56
2022/08/31 07:08:41;;;;;;;1.80;1.70;;;17.80;1.00;;;;;;6256283;28;20722;-56
2022/08/31 07:11:46;;;;;;;1.67;1.67;;;17.80;1.00;;;;;;6255133;28;20696;-55
2022/08/31 07:14:49;;;;;;;2.07;1.83;;;17.90;1.00;;;;;;6254957;28;22474;-56
2022/08/31 07:17:58;;;;;;;2.23;2.07;;;17.90;1.00;;;;;;6250907;28;20272;-55
2022/08/31 07:21:12;;;;;;;3.80;2.20;;;17.90;1.00;;;;;;6252793;28;20246;-55
2022/08/31 07:24:17;;;;;;;3.37;2.20;;;17.90;1.00;;;;;;6252083;28;20289;-55
2022/08/31 07:27:20;;;;;;;2.17;2.00;;;17.90;1.00;;;;;;6252694;28;20300;-56
2022/08/31 07:30:24;;;;;;;1.80;1.77;;;18.00;1.00;;;;;;6257227;28;20369;-55
2022/08/31 07:33:37;;;;;;;3.07;2.97;;;18.10;1.00;;;;;;6255369;28;20323;-55
2022/08/31 07:43:23;;;;;;;2.00;1.90;;;18.70;1.00;;;;;;6251399;28;20250;-55
2022/08/31 07:46:30;;;;;;;1.90;1.80;;;18.70;1.00;;;;;;6247772;28;20353;-55
2022/08/31 07:49:35;;;;;;;2.90;1.70;;;18.70;1.00;;;;;;6250444;28;20230;-54
2022/08/31 07:52:47;;;;;;;1.87;1.77;;;18.70;1.00;;;;;;6247275;28;20245;-57
2022/08/31 07:55:54;;;;;;;1.53;1.50;;;18.70;1.00;;;;;;6247813;28;20316;-55
2022/08/31 07:58:57;;;;;;;1.73;1.67;;;18.70;1.00;;;;;;6248457;28;20619;-55
2022/08/31 08:02:02;;;;;;;1.73;1.60;;;18.90;1.00;;;;;;6249684;28;20247;-56
2022/08/31 08:05:08;;;;;;;1.73;1.73;;;19.00;1.00;;;;;;6254231;28;20234;-54
2022/08/31 08:08:11;;;;;;;1.70;1.60;;;19.10;1.00;;;;;;6244647;28;20840;-55
2022/08/31 08:11:22;;;;;;;1.70;1.70;;;19.10;1.00;;;;;;6241516;28;20265;-57
2022/08/31 08:14:26;;;;;;;1.70;1.70;;;19.20;1.00;;;;;;6246244;28;20237;-55
2022/08/31 08:17:32;;;;;;;1.80;1.70;;;19.30;1.00;;;;;;6243612;28;20328;-56
2022/08/31 08:20:36;;;;;;;1.63;1.53;;;19.30;1.00;;;;;;6253897;28;20710;-56
2022/08/31 08:23:40;;;;;;;1.80;1.70;;;19.40;1.00;;;;;;6254934;28;20407;-55
2022/08/31 08:26:45;;;;;;;1.70;1.60;;;19.40;1.00;;;;;;6251143;28;20269;-56
2022/08/31 08:29:51;;;;;;;1.70;1.70;;;19.50;1.00;;;;;;6234789;28;20248;-50
2022/08/31 08:33:02;;;;;;;1.60;1.60;;;19.70;1.00;;;;;;6256790;28;20797;-54
2022/08/31 08:36:07;;;;;;;1.30;1.30;;;19.70;1.00;;;;;;6250119;28;20321;-56
2022/08/31 08:39:11;;;;;;;2.10;1.40;;;19.80;1.00;;;;;;6255494;28;20766;-56
2022/08/31 08:42:18;;;;;;;2.57;1.50;;;19.80;1.00;;;;;;6259085;28;20252;-56
2022/08/31 08:45:21;;;;;;;1.97;1.73;;;19.90;1.00;;;;;;6250462;28;20248;-55
2022/08/31 08:48:27;;;;;;;1.70;1.60;;;19.90;1.00;;;;;;6258466;28;20685;-56
2022/08/31 08:51:53;;;;;;;1.67;1.57;;;19.80;1.00;;;;;;6256279;28;20250;-57
2022/08/31 08:55:01;;;;;;;2.13;2.00;;;19.90;1.00;;;;;;6255022;28;20776;-56
2022/08/31 08:58:08;;;;;;;2.77;1.50;;;20.00;1.00;;;;;;6258706;28;20522;-55
2022/08/31 09:01:15;;;;;;;2.10;1.93;;;20.10;1.00;;;;;;6250128;28;20249;-57
2022/08/31 09:04:31;;;;;;;2.27;2.03;;;20.20;1.00;;;;;;6252837;28;20272;-56
2022/08/31 09:07:54;;;;;;;2.30;2.20;;;20.30;1.00;;;;;;6244330;28;20262;-56
2022/08/31 09:11:16;;;;;;;1.43;1.43;;;20.40;1.00;;;;;;6256460;28;20241;-57
2022/08/31 09:14:32;;;;;;;3.53;1.77;;;20.50;1.00;;;;;;6253593;28;20238;-57
2022/08/31 09:17:46;;;;;;;1.87;1.87;;;20.70;1.00;;;;;;6257385;28;20272;-55
2022/08/31 09:21:05;;;;;;;1.63;1.53;;;20.70;1.00;;;;;;6253203;28;20825;-55
2022/08/31 09:24:13;;;;;;;3.03;1.80;;;20.60;1.00;;;;;;6257295;28;20313;-56
2022/08/31 09:27:20;;;;;;;2.70;2.10;;;20.80;1.00;;;;;;6255228;28;20518;-56
2022/08/31 09:30:40;;;;;;;1.97;1.87;;;20.80;1.00;;;;;;6257711;28;20242;-58
2022/08/31 09:33:49;;;;;;;1.60;1.60;;;21.00;1.00;;;;;;6255136;28;20640;-57
2022/08/31 09:37:00;;;;;;;1.53;1.53;;;21.30;1.00;;;;;;6254092;28;20230;-55
2022/08/31 09:40:17;;;;;;;1.93;1.63;;;21.40;1.00;;;;;;6249240;28;20573;-56
2022/08/31 09:43:33;;;;;;;2.17;1.70;;;21.50;1.00;;;;;;6249729;28;20229;-56
2022/08/31 09:46:37;;;;;;;1.67;1.67;;;21.50;1.00;;;;;;6242240;28;20243;-57
2022/08/31 09:49:41;;;;;;;1.60;1.60;;;21.60;1.00;;;;;;6248938;28;20243;-56
2022/08/31 09:56:12;;;;;;;1.60;1.60;;;21.50;1.00;;;;;;6254336;28;20613;-59
2022/08/31 09:59:31;;;;;;;1.60;1.60;;;21.40;1.00;;;;;;6247843;28;20715;-56
2022/08/31 10:02:36;;;;;;;1.50;1.50;;;21.30;1.00;;;;;;6246462;28;20230;-60
2022/08/31 10:05:43;;;;;;;1.50;1.50;;;21.40;1.00;;;;;;6256044;28;20385;-54
2022/08/31 10:08:56;;;;;;;2.87;1.83;;;21.40;1.00;;;;;;6253718;28;20234;-55
2022/08/31 10:12:04;;;;;;;1.60;1.50;;;21.20;1.00;;;;;;6253343;28;20238;-57
2022/08/31 10:15:12;;;;;;;1.87;1.73;;;21.20;1.00;;;;;;6254265;28;20771;-55
2022/08/31 10:18:27;;;;;;;2.00;1.77;;;21.40;1.00;;;;;;6255979;28;20234;-55
2022/08/31 10:21:42;;;;;;;1.67;1.57;;;21.70;1.00;;;;;;6246201;28;20322;-56
2022/08/31 10:24:49;;;;;;;2.60;1.57;;;22.00;1.00;;;;;;6252733;28;20316;-56
2022/08/31 10:28:00;;;;;;;1.67;1.60;;;22.20;1.00;;;;;;6245170;28;20232;-57
2022/08/31 10:31:18;;;;;;;1.87;1.77;;;22.50;1.00;;;;;;6248229;28;20329;-56
2022/08/31 10:37:55;;;;;;;1.40;1.40;;;22.70;1.00;;;;;;6246893;28;20321;-56
2022/08/31 10:41:12;;;;;;;2.07;2.07;;;22.80;1.00;;;;;;6246168;28;20737;-57
2022/08/31 10:44:25;;;;;;;1.97;1.80;;;22.80;1.00;;;;;;6252725;28;20849;-55
2022/08/31 10:47:40;;;;;;;1.80;1.40;;;22.80;1.00;;;;;;6251387;28;20234;-55
2022/08/31 10:50:50;;;;;;;1.60;1.50;;;22.80;1.00;;;;;;6256443;28;20269;-56
2022/08/31 10:54:15;;;;;;;1.83;1.73;;;23.20;1.00;;;;;;6251318;28;20283;-57
2022/08/31 10:57:31;;;;;;;2.00;1.90;;;23.30;1.00;;;;;;6250640;28;20519;-56
2022/08/31 11:00:48;;;;;;;1.47;1.40;;;23.30;1.00;;;;;;6255966;28;20729;-56
2022/08/31 11:04:18;;;;;;;2.17;2.07;;;23.30;1.00;;;;;;6255736;28;20310;-56
2022/08/31 11:07:36;;;;;;;1.70;1.60;;;22.90;1.00;;;;;;6246414;28;20715;-56
2022/08/31 11:10:48;;;;;;;2.30;1.70;;;22.70;1.00;;;;;;6255750;28;20441;-56
2022/08/31 11:14:06;;;;;;;1.87;1.83;;;22.50;1.00;;;;;;6254160;28;20707;-56
2022/08/31 11:17:36;;;;;;;1.77;1.67;;;22.60;1.00;;;;;;6259232;28;20404;-56
2022/08/31 11:20:58;;;;;;;1.87;1.77;;;22.70;1.00;;;;;;6250302;28;20259;-57
2022/08/31 11:24:26;;;;;;;1.80;1.80;;;22.70;1.00;;;;;;6257211;28;20684;-56
2022/08/31 11:27:35;;;;;;;1.83;1.77;;;22.70;1.00;;;;;;6250199;28;20321;-56
2022/08/31 11:30:45;;;;;;;1.60;1.60;;;22.80;1.00;;;;;;6271510;28;20743;-56
2022/08/31 11:33:57;;;;;;;1.93;1.77;;;23.10;1.00;;;;;;6252718;28;20335;-57
2022/08/31 11:37:54;;;;;;;2.43;1.80;;;23.30;1.00;;;;;;6245620;28;20230;-57
2022/08/31 11:41:02;;;;;;;2.00;1.90;;;23.20;1.00;;;;;;6218998;28;20231;-56
2022/08/31 11:44:08;;;;;;;1.63;1.60;;;23.10;1.00;;;;;;6225556;28;20242;-55
2022/08/31 11:47:33;;;;;;;2.00;1.90;;;22.90;1.00;;;;;;6238866;28;20237;-55
2022/08/31 11:51:14;;;;;;;1.80;1.70;;;22.70;1.00;;;;;;6264366;28;20522;-57
2022/08/31 11:55:01;;;;;;;1.40;1.40;;;22.60;1.00;;;;;;6266849;28;20483;-56
2022/08/31 11:58:26;;;;;;;2.10;2.00;;;22.60;1.00;;;;;;6259180;28;20285;-56
2022/08/31 12:01:34;;;;;;;1.80;1.73;;;22.60;1.00;;;;;;6257468;28;20234;-57
2022/08/31 12:04:59;;;;;;;1.73;1.73;;;22.70;1.00;;;;;;6256832;28;20725;-55
2022/08/31 12:08:06;;;;;;;1.90;1.80;;;22.90;1.00;;;;;;6259228;28;20222;-55
2022/08/31 12:11:18;;;;;;;1.77;1.67;;;23.00;1.00;;;;;;6253918;28;20232;-58
2022/08/31 12:14:30;;;;;;;2.03;1.80;;;23.00;1.00;;;;;;6252677;28;20244;-56
2022/08/31 12:17:45;;;;;;;1.50;1.50;;;23.00;1.00;;;;;;6251959;28;20321;-57
2022/08/31 12:24:37;;;;;;;1.60;1.60;;;23.00;1.00;;;;;;6252975;28;20238;-55
2022/08/31 12:28:03;;;;;;;1.67;1.67;;;23.00;1.00;;;;;;6255188;28;20235;-56
2022/08/31 12:31:13;;;;;;;1.80;1.80;;;22.80;1.00;;;;;;6246801;28;20292;-56
2022/08/31 12:34:20;;;;;;;2.63;2.00;;;22.80;1.00;;;;;;6249182;28;20853;-55
2022/08/31 12:37:28;;;;;;;2.20;2.00;;;22.80;1.00;;;;;;6257508;28;20280;-56
2022/08/31 12:40:33;;;;;;;1.63;1.63;;;22.90;1.00;;;;;;6258842;28;20244;-57
2022/08/31 12:43:42;;;;;;;1.67;1.57;;;23.00;1.00;;;;;;6254798;28;20594;-56
2022/08/31 12:46:58;;;;;;;1.80;1.43;;;23.20;1.00;;;;;;6257344;28;20260;-56
2022/08/31 12:50:16;;;;;;;2.10;1.93;;;23.40;1.00;;;;;;6246826;28;20234;-57
2022/08/31 12:53:51;;;;;;;1.60;1.60;;;23.80;1.00;;;;;;6245577;28;20234;-55
2022/08/31 12:57:03;;;;;;;1.73;1.63;;;23.90;1.00;;;;;;6253556;28;20234;-57
2022/08/31 13:00:14;;;;;;;3.37;1.63;;;24.00;1.00;;;;;;6251546;28;20295;-56
2022/08/31 13:03:21;;;;;;;2.53;1.83;;;23.70;1.00;;;;;;6241937;28;20635;-57
2022/08/31 13:06:26;;;;;;;1.70;1.70;;;23.50;1.00;;;;;;6245882;28;20227;-55
2022/08/31 13:09:34;;;;;;;1.60;1.60;;;23.70;1.00;;;;;;6251537;28;20330;-56
2022/08/31 13:12:38;;;;;;;1.47;1.47;;;24.00;1.00;;;;;;6258877;28;20248;-57
2022/08/31 13:15:43;;;;;;;2.53;2.00;;;24.20;1.00;;;;;;6254370;28;20246;-55
2022/08/31 13:18:46;;;;;;;1.83;1.80;;;24.30;1.00;;;;;;6256666;28;20238;-56
2022/08/31 13:21:53;;;;;;;2.47;2.27;;;24.20;1.00;;;;;;6250053;28;20858;-54
2022/08/31 13:25:10;;;;;;;1.87;1.87;;;24.00;1.00;;;;;;6256326;28;20846;-56
2022/08/31 13:28:24;;;;;;;1.87;1.73;;;23.70;1.00;;;;;;6257847;28;20230;-55
2022/08/31 13:31:32;;;;;;;1.80;1.70;;;23.30;1.00;;;;;;6254585;28;20234;-57
2022/08/31 13:34:40;;;;;;;1.83;1.73;;;23.10;1.00;;;;;;6243659;28;20242;-56
2022/08/31 13:38:03;;;;;;;1.37;1.37;;;23.10;1.00;;;;;;6257306;28;20295;-57
2022/08/31 13:41:17;;;;;;;2.10;1.93;;;23.00;1.00;;;;;;6256762;28;20687;-56
2022/08/31 13:44:28;;;;;;;1.40;1.40;;;23.10;1.00;;;;;;6255337;28;20234;-56
2022/08/31 13:47:36;;;;;;;1.83;1.77;;;23.30;1.00;;;;;;6255278;28;20256;-56
2022/08/31 13:51:05;;;;;;;1.80;1.70;;;23.50;1.00;;;;;;6253838;28;20623;-56
2022/08/31 13:54:15;;;;;;;2.00;1.90;;;23.60;1.00;;;;;;6255206;28;20464;-57
2022/08/31 13:57:21;;;;;;;2.00;1.90;;;23.90;1.00;;;;;;6254751;28;20889;-55
2022/08/31 14:00:32;;;;;;;1.83;1.70;;;24.00;1.00;;;;;;6256866;28;20882;-56
2022/08/31 14:03:50;;;;;;;1.77;1.53;;;24.00;1.00;;;;;;6250361;28;20230;-56
2022/08/31 14:06:53;;;;;;;1.70;1.60;;;23.90;1.00;;;;;;6249022;28;20241;-58
2022/08/31 14:09:58;;;;;;;1.80;1.80;;;23.70;1.00;;;;;;6256424;28;20787;-56
2022/08/31 14:13:10;;;;;;;1.80;1.70;;;23.70;1.00;;;;;;6248551;28;20283;-55
2022/08/31 14:16:20;;;;;;;1.50;1.50;;;23.60;1.00;;;;;;6256702;28;20245;-55
2022/08/31 14:19:31;;;;;;;1.90;1.90;;;23.40;1.00;;;;;;6248914;28;20234;-56
2022/08/31 14:22:44;;;;;;;1.90;1.80;;;23.30;1.00;;;;;;6238854;28;20310;-55
2022/08/31 14:25:47;;;;;;;2.37;2.27;;;23.10;1.00;;;;;;6248057;28;20238;-56
2022/08/31 14:28:52;;;;;;;1.90;1.80;;;23.00;1.00;;;;;;6250499;28;20259;-57
2022/08/31 14:31:57;;;;;;;1.73;1.73;;;22.80;1.00;;;;;;6253527;28;20257;-56
2022/08/31 14:35:06;;;;;;;1.50;1.50;;;22.90;1.00;;;;;;6246229;28;20233;-56
2022/08/31 14:38:14;;;;;;;1.30;1.30;;;23.00;1.00;;;;;;6257983;28;20238;-56
2022/08/31 14:41:18;;;;;;;1.77;1.50;;;23.20;1.00;;;;;;6261632;28;20396;-57
2022/08/31 14:44:25;;;;;;;1.70;1.70;;;23.30;1.00;;;;;;6256377;28;20784;-55
2022/08/31 14:47:31;;;;;;;1.57;1.57;;;23.20;1.00;;;;;;6260879;28;20391;-55
2022/08/31 14:50:35;;;;;;;2.83;2.63;;;23.10;1.00;;;;;;6260496;28;20731;-55
2022/08/31 14:53:38;;;;;;;3.33;3.00;;;23.00;1.00;;;;;;6239150;28;20528;-56
2022/08/31 14:56:46;;;;;;;2.00;1.90;;;23.00;1.00;;;;;;6259150;28;20233;-57
2022/08/31 14:59:56;;;;;;;1.50;1.40;;;23.00;1.00;;;;;;6258616;28;20314;-55
2022/08/31 15:02:59;;;;;;;2.00;1.90;;;23.00;1.00;;;;;;6250042;28;20252;-57
2022/08/31 15:06:04;;;;;;;2.50;2.40;;;23.10;1.00;;;;;;6256917;28;20380;-56
2022/08/31 15:09:07;;;;;;;1.80;1.70;;;23.00;1.00;;;;;;6259452;28;20793;-57
2022/08/31 15:12:11;;;;;;;1.90;1.90;;;22.90;1.00;;;;;;6256733;28;20466;-55
2022/08/31 15:15:18;;;;;;;2.20;2.00;;;22.90;1.00;;;;;;6252672;28;20372;-56
2022/08/31 15:18:23;;;;;;;1.77;1.67;;;22.90;1.00;;;;;;6259118;28;20337;-58
2022/08/31 15:21:28;;;;;;;1.57;1.57;;;22.90;1.00;;;;;;6254625;28;20302;-56
2022/08/31 15:24:30;;;;;;;1.70;1.60;;;22.90;1.00;;;;;;6258053;28;20602;-58
2022/08/31 15:27:33;;;;;;;2.03;1.93;;;23.00;1.00;;;;;;6259643;28;20272;-54
2022/08/31 15:30:38;;;;;;;1.97;1.90;;;23.00;1.00;;;;;;6261194;28;20776;-56
2022/08/31 15:33:46;;;;;;;1.73;1.73;;;23.00;1.00;;;;;;6252643;28;20500;-57
2022/08/31 15:36:54;;;;;;;1.97;1.87;;;22.90;1.00;;;;;;6259757;28;20317;-56
2022/08/31 15:39:59;;;;;;;2.30;2.20;;;22.80;1.00;;;;;;6261125;28;20256;-56
2022/08/31 15:43:14;;;;;;;1.63;1.63;;;22.70;1.00;;;;;;6253280;28;20237;-55
2022/08/31 15:48:40;;;;;;;2.07;2.00;;;22.60;1.00;;;;;;6262669;28;20245;-63
2022/08/31 15:49:42;;;;;;;1.50;1.50;;;22.70;1.00;;;;;;6260450;28;20349;-55
2022/08/31 15:52:47;;;;;;;1.60;1.60;;;22.50;1.00;;;;;;6261617;28;20325;-56
2022/08/31 15:55:54;;;;;;;1.67;1.60;;;22.40;1.00;;;;;;6262276;28;20384;-55
2022/08/31 15:58:57;;;;;;;1.80;1.80;;;22.20;1.00;;;;;;6263084;28;20273;-57
2022/08/31 16:02:00;;;;;;;1.70;1.70;;;22.00;1.00;;;;;;6255827;28;20584;-55
2022/08/31 16:05:05;;;;;;;1.60;1.60;;;21.80;1.00;;;;;;6261435;28;20230;-56
2022/08/31 16:08:11;;;;;;;1.93;1.77;;;21.60;1.00;;;;;;6247556;28;20230;-53
2022/08/31 16:11:16;;;;;;;1.80;1.63;;;21.50;1.00;;;;;;6257490;28;20688;-58
2022/08/31 16:14:19;;;;;;;1.87;1.83;;;21.40;1.00;;;;;;6259906;28;20257;-56
2022/08/31 16:17:22;;;;;;;1.47;1.37;;;21.30;1.00;;;;;;6258462;28;20252;-55
2022/08/31 16:20:27;;;;;;;1.30;1.30;;;21.20;1.00;;;;;;6252542;28;20726;-57
2022/08/31 16:23:34;;;;;;;1.80;1.70;;;21.20;1.00;;;;;;6253400;28;20290;-56
2022/08/31 16:26:40;;;;;;;2.70;2.60;;;21.10;1.00;;;;;;6259679;28;20272;-56
2022/08/31 16:29:43;;;;;;;2.53;2.43;;;21.10;1.00;;;;;;6245921;28;20286;-56
2022/08/31 16:32:45;;;;;;;2.13;2.00;;;21.20;1.00;;;;;;6252438;28;20238;-56
2022/08/31 16:35:53;;;;;;;1.93;1.77;;;21.30;1.00;;;;;;6253055;28;20226;-55
2022/08/31 16:39:00;;;;;;;1.87;1.87;;;21.30;1.00;;;;;;6259246;28;20714;-56
2022/08/31 16:42:04;;;;;;;1.63;1.63;;;21.30;1.00;;;;;;6254110;28;20238;-55
2022/08/31 16:45:11;;;;;;;2.03;2.00;;;21.30;1.00;;;;;;6254882;28;20279;-57
2022/08/31 16:51:35;;;;;;;1.80;1.80;;;21.10;1.00;;;;;;6257926;28;20246;-56
2022/08/31 16:54:41;;;;;;;3.13;2.63;;;21.00;1.00;;;;;;6255062;28;20476;-57
2022/08/31 16:57:44;;;;;;;2.00;1.90;;;20.80;1.00;;;;;;6242538;28;20475;-56